Austin, Texas
Traffic Map
Current Weather Conditions
Austin, Texas
Clear
Clear
24°
Feels Like: 24°
Wind Chill: 24° Ceiling: Unl
Heat Index: 24° Visibility: 10mi
Dew Point: 15° Wind: 3mph
Humidity: 56% Direction: ° ()
Pressure: 30.01in Gusts: 0mph
Raw Report DataKATT 202351Z AUTO VRB03KT 10SM CLR 24/15 A3001 RMK AO2 SLP152 T02440150 10278 20244 55002
Traffic Incident Summary
Active as of:
Severity:
Category:
InformationThere was an issue retrieving the traffic information for this location. Please try a different location or try again shortly.
Advertisements
Track Severe Weather on mobile